createdAt,value
2019-05-16T00:00:00.914Z,33.43
2019-05-16T00:02:31.106Z,36.07
2019-05-16T00:05:01.309Z,35.20
2019-05-16T00:07:31.614Z,34.40
2019-05-16T00:10:01.823Z,34.40
2019-05-16T00:12:32.210Z,33.57
2019-05-16T00:15:02.396Z,31.23
2019-05-16T00:17:33.649Z,33.47
2019-05-16T00:20:04.996Z,32.97
2019-05-16T00:22:35.199Z,33.80
2019-05-16T00:25:05.471Z,32.77
2019-05-16T00:27:35.786Z,32.67
2019-05-16T00:30:08.837Z,32.70
2019-05-16T00:32:39.291Z,34.17
2019-05-16T00:35:09.614Z,34.07
2019-05-16T00:37:39.867Z,34.17
2019-05-16T00:40:11.077Z,32.83
2019-05-16T00:42:41.234Z,31.90
2019-05-16T00:45:13.405Z,31.33
2019-05-16T00:47:43.322Z,30.77
2019-05-16T00:50:13.583Z,30.93
2019-05-16T00:52:43.712Z,30.93
2019-05-16T00:55:14.096Z,31.57
2019-05-16T00:57:44.729Z,33.43
2019-05-16T01:00:15.191Z,33.90
2019-05-16T01:02:45.390Z,33.93
2019-05-16T01:05:15.533Z,33.60
2019-05-16T01:07:47.882Z,32.40
2019-05-16T01:10:18.311Z,32.20
2019-05-16T01:12:48.669Z,30.63
2019-05-16T01:15:18.803Z,31.60
2019-05-16T01:17:48.954Z,32.27
2019-05-16T01:20:19.400Z,32.17
2019-05-16T01:22:49.736Z,33.47
2019-05-16T01:25:19.926Z,32.33
2019-05-16T01:27:50.061Z,31.63
2019-05-16T01:30:20.189Z,31.00
2019-05-16T01:32:50.319Z,32.07
2019-05-16T01:35:20.527Z,30.40
2019-05-16T01:37:50.626Z,30.13
2019-05-16T01:40:20.779Z,30.53
2019-05-16T01:42:50.949Z,28.37
2019-05-16T01:45:21.069Z,27.77
2019-05-16T01:47:51.194Z,27.43
2019-05-16T01:50:21.397Z,25.83
2019-05-16T01:52:51.560Z,25.37
2019-05-16T01:55:21.733Z,27.30
2019-05-16T01:57:51.909Z,25.57
2019-05-16T02:00:25.243Z,25.80
2019-05-16T02:02:53.876Z,26.17
2019-05-16T02:05:24.088Z,23.67
2019-05-16T02:07:54.241Z,25.13
2019-05-16T02:10:24.386Z,24.57
2019-05-16T02:12:54.610Z,25.87
2019-05-16T02:15:24.756Z,26.47
2019-05-16T02:17:54.995Z,27.10
2019-05-16T02:20:25.117Z,29.80
2019-05-16T02:22:55.201Z,27.23
2019-05-16T02:25:27.628Z,30.17
2019-05-16T02:27:58.974Z,27.40
2019-05-16T02:30:31.498Z,30.17
2019-05-16T02:33:01.318Z,28.27
2019-05-16T02:35:31.656Z,29.33
2019-05-16T02:38:01.885Z,28.73
2019-05-16T02:40:32.030Z,30.63
2019-05-16T02:43:02.292Z,30.63
2019-05-16T02:45:32.784Z,29.13
2019-05-16T02:48:03.126Z,32.43
2019-05-16T02:50:33.417Z,32.40
2019-05-16T02:53:03.570Z,32.50
2019-05-16T02:55:33.779Z,33.53
2019-05-16T02:58:03.997Z,32.97
2019-05-16T03:00:36.235Z,28.87
2019-05-16T03:03:06.921Z,26.57
2019-05-16T03:05:37.027Z,27.07
2019-05-16T03:08:07.168Z,27.20
2019-05-16T03:10:41.023Z,25.37
2019-05-16T03:13:11.193Z,25.30
2019-05-16T03:15:43.721Z,25.00
2019-05-16T03:18:14.228Z,25.73
2019-05-16T03:20:46.395Z,24.83
2019-05-16T03:23:16.522Z,27.13
2019-05-16T03:25:46.748Z,27.93
2019-05-16T03:28:16.887Z,28.53
2019-05-16T03:30:47.080Z,27.73
2019-05-16T03:33:25.926Z,28.33
2019-05-16T03:35:54.422Z,27.43
2019-05-16T03:38:21.438Z,25.87
2019-05-16T03:40:51.721Z,27.20
2019-05-16T03:43:22.218Z,24.87
2019-05-16T03:45:52.575Z,25.90
2019-05-16T03:48:22.768Z,25.57
2019-05-16T03:50:53.006Z,27.33
2019-05-16T03:53:23.425Z,27.90
2019-05-16T03:55:53.694Z,27.43
2019-05-16T03:58:23.882Z,27.83
2019-05-16T04:00:55.378Z,27.00
2019-05-16T04:03:28.613Z,25.50
2019-05-16T04:06:00.802Z,26.53
2019-05-16T04:08:31.084Z,24.67
2019-05-16T04:11:02.382Z,26.40
2019-05-16T04:13:32.731Z,25.80
2019-05-16T04:16:02.901Z,26.70
2019-05-16T04:18:33.110Z,26.87
2019-05-16T04:21:03.340Z,25.73
2019-05-16T04:23:33.571Z,25.87
2019-05-16T04:26:03.705Z,27.73
2019-05-16T04:28:33.904Z,30.30
2019-05-16T04:31:04.101Z,28.77
2019-05-16T04:33:34.239Z,27.07
2019-05-16T04:36:04.487Z,27.83
2019-05-16T04:38:41.309Z,27.20
2019-05-16T04:41:07.524Z,28.37
2019-05-16T04:43:37.728Z,27.13
2019-05-16T04:46:11.664Z,27.70
2019-05-16T04:48:41.692Z,28.33
2019-05-16T04:51:12.196Z,29.40
2019-05-16T04:53:42.799Z,30.73
2019-05-16T04:56:32.311Z,30.00
2019-05-16T04:59:02.367Z,28.97
2019-05-16T05:01:32.595Z,31.27
2019-05-16T05:04:10.746Z,30.57
2019-05-16T05:06:34.663Z,33.97
2019-05-16T05:09:06.185Z,31.50
2019-05-16T05:11:36.320Z,30.23
2019-05-16T05:14:10.319Z,32.23
2019-05-16T05:16:41.322Z,31.63
2019-05-16T05:19:11.417Z,33.40
2019-05-16T05:21:41.675Z,33.47
2019-05-16T05:24:11.878Z,35.70
2019-05-16T05:26:42.107Z,38.47
2019-05-16T05:29:12.297Z,39.23
2019-05-16T05:31:44.804Z,41.13
2019-05-16T05:34:14.257Z,44.27
2019-05-16T05:36:44.478Z,48.13
2019-05-16T05:39:15.546Z,49.17
2019-05-16T05:41:45.896Z,54.03
2019-05-16T05:44:16.167Z,54.47
2019-05-16T05:46:46.310Z,56.07
2019-05-16T05:49:16.448Z,53.40
2019-05-16T05:51:46.516Z,52.93
2019-05-16T05:54:16.718Z,52.33
2019-05-16T05:56:46.871Z,52.00
2019-05-16T05:59:17.022Z,49.37
2019-05-16T06:01:47.173Z,49.90
2019-05-16T06:04:19.678Z,52.67
2019-05-16T06:06:50.324Z,55.10
2019-05-16T06:09:28.328Z,55.70
2019-05-16T06:11:52.654Z,56.90
2019-05-16T06:14:23.860Z,55.37
2019-05-16T06:16:53.994Z,54.37
2019-05-16T06:19:24.138Z,51.73
2019-05-16T06:21:54.322Z,66.37
2019-05-16T06:24:24.455Z,53.30
2019-05-16T06:26:54.646Z,49.47
2019-05-16T06:29:24.794Z,55.17
2019-05-16T06:31:54.933Z,54.07
2019-05-16T06:34:25.190Z,52.73
2019-05-16T06:36:55.392Z,53.80
2019-05-16T06:39:37.527Z,49.43
2019-05-16T06:41:57.311Z,46.60
2019-05-16T06:44:27.466Z,41.87
2019-05-16T06:47:14.945Z,37.43
2019-05-16T06:49:30.410Z,45.00
2019-05-16T06:52:00.774Z,40.93
2019-05-16T06:54:30.937Z,42.43
2019-05-16T06:57:01.162Z,33.83
2019-05-16T06:59:31.228Z,33.83
2019-05-16T07:02:01.358Z,36.90
2019-05-16T07:04:31.499Z,36.17
2019-05-16T07:07:03.095Z,34.70
2019-05-16T07:09:33.553Z,32.93
2019-05-16T07:12:03.706Z,30.97
2019-05-16T07:14:33.765Z,32.80
2019-05-16T07:17:03.952Z,31.47
2019-05-16T07:19:35.538Z,32.03
2019-05-16T07:22:05.846Z,32.97
2019-05-16T07:24:35.979Z,30.90
2019-05-16T07:27:09.014Z,29.50
2019-05-16T07:29:40.078Z,28.43
2019-05-16T07:32:09.846Z,30.10
2019-05-16T07:34:40.416Z,32.17
2019-05-16T07:37:11.719Z,25.93
2019-05-16T07:39:42.076Z,24.83
2019-05-16T07:42:12.241Z,20.83
2019-05-16T07:44:42.730Z,18.37
2019-05-16T07:47:12.882Z,16.53
2019-05-16T07:49:43.011Z,16.13
2019-05-16T07:52:13.171Z,14.30
2019-05-16T07:54:43.295Z,13.27
2019-05-16T07:57:19.655Z,10.67
2019-05-16T07:59:46.351Z,9.70
2019-05-16T08:02:16.582Z,9.87
2019-05-16T08:04:46.724Z,11.60
2019-05-16T08:07:16.927Z,20.03
2019-05-16T08:09:47.103Z,16.43
2019-05-16T08:12:23.483Z,17.00
2019-05-16T08:14:50.191Z,17.20
2019-05-16T08:17:21.889Z,21.33
2019-05-16T08:19:52.208Z,14.33
2019-05-16T08:22:22.877Z,12.87
2019-05-16T08:24:53.309Z,15.27
2019-05-16T08:27:23.511Z,12.57
2019-05-16T08:29:53.582Z,12.93
2019-05-16T08:32:23.778Z,12.43
2019-05-16T08:34:53.995Z,11.20
2019-05-16T08:37:37.520Z,11.83
2019-05-16T08:39:56.102Z,11.80
2019-05-16T08:42:26.408Z,12.60
2019-05-16T08:44:56.590Z,12.80
2019-05-16T08:47:26.857Z,12.40
2019-05-16T08:49:57.051Z,13.17
2019-05-16T08:52:27.246Z,14.97
2019-05-16T08:54:57.653Z,11.63
2019-05-16T08:57:32.282Z,10.53
2019-05-16T09:00:01.335Z,11.43
2019-05-16T09:05:05.332Z,11.90
2019-05-16T09:07:35.462Z,13.63
2019-05-16T09:10:35.347Z,12.60
2019-05-16T09:10:42.043Z,12.60
2019-05-16T09:12:38.400Z,10.87
2019-05-16T09:15:09.861Z,7.77
2019-05-16T09:17:40.175Z,6.20
2019-05-16T09:20:10.752Z,5.90
2019-05-16T09:22:41.009Z,5.13
2019-05-16T09:25:11.589Z,5.20
2019-05-16T09:27:41.816Z,5.43
2019-05-16T09:30:12.186Z,4.83
2019-05-16T09:32:43.506Z,6.00
2019-05-16T09:35:13.925Z,6.30
2019-05-16T09:37:47.116Z,5.53
2019-05-16T09:40:17.445Z,6.50
2019-05-16T09:42:48.912Z,6.00
2019-05-16T09:45:19.410Z,8.53
2019-05-16T09:47:49.656Z,11.77
2019-05-16T09:50:20.096Z,12.93
2019-05-16T09:52:50.350Z,12.50
2019-05-16T09:55:20.813Z,12.40
2019-05-16T09:57:54.434Z,11.30
2019-05-16T10:00:26.941Z,10.53
2019-05-16T10:02:57.932Z,10.43
2019-05-16T10:05:28.428Z,10.33
2019-05-16T10:07:58.887Z,11.43
2019-05-16T10:10:29.061Z,12.90
2019-05-16T10:12:59.467Z,14.50
2019-05-16T10:15:29.678Z,15.90
2019-05-16T10:17:59.863Z,18.70
2019-05-16T10:20:30.092Z,19.27
2019-05-16T10:23:00.286Z,20.87
2019-05-16T10:25:30.521Z,21.97
2019-05-16T10:28:00.805Z,22.80
2019-05-16T10:30:30.915Z,25.53
2019-05-16T10:33:01.161Z,25.00
2019-05-16T10:35:31.402Z,25.30
2019-05-16T10:38:01.609Z,24.23
2019-05-16T10:40:31.968Z,23.87
2019-05-16T10:43:02.357Z,24.33
2019-05-16T10:45:32.734Z,23.17
2019-05-16T10:48:02.879Z,23.83
2019-05-16T10:50:33.088Z,23.97
2019-05-16T10:53:27.826Z,23.00
2019-05-16T10:55:36.816Z,21.13
2019-05-16T10:58:07.797Z,20.80
2019-05-16T11:01:05.508Z,20.70
2019-05-16T11:03:10.021Z,19.90
2019-05-16T11:05:40.260Z,20.43
2019-05-16T11:08:10.628Z,17.97
2019-05-16T11:10:41.035Z,18.43
2019-05-16T11:13:11.405Z,17.73
2019-05-16T11:15:41.594Z,16.67
2019-05-16T11:18:11.848Z,15.17
2019-05-16T11:20:45.072Z,13.40
2019-05-16T11:23:13.875Z,13.37
2019-05-16T11:25:44.127Z,14.43
2019-05-16T11:28:14.339Z,16.03
2019-05-16T11:30:44.569Z,17.23
2019-05-16T11:33:17.164Z,16.70
2019-05-16T11:35:47.649Z,18.37
2019-05-16T11:38:19.251Z,19.90
2019-05-16T11:40:49.522Z,20.17
2019-05-16T11:43:21.897Z,21.57
2019-05-16T11:45:51.634Z,21.07
2019-05-16T11:48:25.065Z,22.60
2019-05-16T11:50:56.747Z,23.17
2019-05-16T11:53:28.309Z,23.07
2019-05-16T11:56:02.063Z,24.93
2019-05-16T11:58:32.554Z,23.90
2019-05-16T12:01:02.965Z,25.87
2019-05-16T12:03:33.203Z,25.37
2019-05-16T12:06:03.437Z,26.90
2019-05-16T12:08:33.803Z,26.90
2019-05-16T12:11:03.966Z,26.93
2019-05-16T12:13:36.871Z,26.87
2019-05-16T12:16:07.569Z,28.13
2019-05-16T12:18:38.205Z,28.37
2019-05-16T12:21:08.350Z,25.50
2019-05-16T12:23:38.581Z,24.03
2019-05-16T12:26:08.754Z,25.23
2019-05-16T12:28:38.962Z,25.87
2019-05-16T12:31:09.280Z,25.63
2019-05-16T12:33:39.708Z,25.43
2019-05-16T12:36:09.921Z,27.03
2019-05-16T12:38:40.015Z,26.37
2019-05-16T12:41:10.205Z,26.13
2019-05-16T12:43:48.842Z,25.50
2019-05-16T12:46:12.276Z,25.90
2019-05-16T12:48:42.488Z,24.33
2019-05-16T12:51:12.569Z,24.87
2019-05-16T12:53:42.723Z,24.40
2019-05-16T12:56:12.883Z,24.00
2019-05-16T12:58:43.063Z,22.60
2019-05-16T13:01:16.372Z,23.80
2019-05-16T13:03:47.863Z,21.70
2019-05-16T13:06:17.303Z,22.70
2019-05-16T13:08:48.650Z,22.77
2019-05-16T13:11:19.364Z,23.00
2019-05-16T13:14:02.530Z,24.60
2019-05-16T13:16:21.487Z,23.97
2019-05-16T13:18:51.624Z,23.67
2019-05-16T13:21:22.977Z,26.50
2019-05-16T13:23:53.421Z,25.00
2019-05-16T13:26:23.563Z,25.20
2019-05-16T13:28:53.813Z,24.63
2019-05-16T13:31:24.007Z,23.23
2019-05-16T13:33:56.699Z,25.30
2019-05-16T13:36:27.214Z,24.17
2019-05-16T13:38:57.717Z,25.90
2019-05-16T13:41:27.952Z,23.27
2019-05-16T13:43:58.234Z,23.73
2019-05-16T13:46:28.493Z,24.23
2019-05-16T13:48:59.008Z,22.80
2019-05-16T13:51:29.222Z,22.73
2019-05-16T13:53:59.563Z,22.57
2019-05-16T13:56:29.838Z,21.73
2019-05-16T13:59:00.174Z,22.00
2019-05-16T14:01:30.328Z,21.33
2019-05-16T14:04:01.655Z,22.30
2019-05-16T14:06:31.948Z,22.57
2019-05-16T14:09:02.226Z,22.40
2019-05-16T14:11:36.361Z,21.13
2019-05-16T14:14:05.982Z,20.43
2019-05-16T14:16:37.752Z,21.37
2019-05-16T14:19:08.163Z,20.90
2019-05-16T14:21:38.419Z,21.93
2019-05-16T14:24:08.880Z,21.20
2019-05-16T14:26:39.191Z,21.70
2019-05-16T14:29:09.396Z,21.53
2019-05-16T14:31:39.622Z,20.90
2019-05-16T14:34:09.851Z,20.93
2019-05-16T14:36:40.045Z,21.13
2019-05-16T14:39:10.613Z,21.60
2019-05-16T14:41:40.929Z,21.47
2019-05-16T14:44:11.152Z,20.33
2019-05-16T14:46:41.286Z,20.23
2019-05-16T14:49:12.575Z,18.27
2019-05-16T14:51:42.858Z,19.33
2019-05-16T14:54:13.131Z,17.90
2019-05-16T14:56:43.396Z,19.83
2019-05-16T14:59:13.677Z,16.17
2019-05-16T15:01:43.802Z,15.97
2019-05-16T15:04:14.054Z,16.10
2019-05-16T15:06:46.793Z,16.30
2019-05-16T15:09:17.164Z,14.97
2019-05-16T15:11:48.171Z,15.03
2019-05-16T15:14:28.614Z,15.23
2019-05-16T15:16:58.920Z,13.57
2019-05-16T15:19:29.123Z,13.40
2019-05-16T15:22:02.399Z,12.80
2019-05-16T15:24:31.144Z,13.43
2019-05-16T15:27:02.177Z,13.90
2019-05-16T15:29:32.500Z,13.77
2019-05-16T15:32:02.739Z,12.90
2019-05-16T15:34:34.682Z,13.70
2019-05-16T15:37:07.695Z,13.50
2019-05-16T15:39:37.513Z,13.80
2019-05-16T15:42:08.397Z,14.60
2019-05-16T15:44:38.719Z,14.73
2019-05-16T15:47:09.055Z,14.60
2019-05-16T15:49:39.212Z,14.00
2019-05-16T15:52:09.619Z,14.30
2019-05-16T15:54:41.878Z,12.47
2019-05-16T15:57:12.077Z,13.00
2019-05-16T15:59:42.274Z,13.50
2019-05-16T16:02:12.505Z,12.57
2019-05-16T16:04:42.659Z,13.67
2019-05-16T16:07:12.903Z,13.07
2019-05-16T16:09:43.074Z,12.93
2019-05-16T16:12:13.443Z,12.90
2019-05-16T16:14:43.561Z,13.77
2019-05-16T16:17:13.786Z,12.63
2019-05-16T16:19:44.026Z,11.80
2019-05-16T16:22:14.255Z,12.00
2019-05-16T16:24:47.538Z,12.27
2019-05-16T16:27:16.989Z,11.83
2019-05-16T16:29:48.009Z,12.63
2019-05-16T16:32:18.496Z,12.37
2019-05-16T16:34:49.059Z,12.63
2019-05-16T16:37:19.355Z,11.80
2019-05-16T16:39:49.500Z,12.27
2019-05-16T16:42:20.650Z,12.30
2019-05-16T16:44:50.875Z,13.47
2019-05-16T16:47:21.026Z,12.77
2019-05-16T16:49:53.554Z,13.60
2019-05-16T16:52:23.833Z,13.80
2019-05-16T16:54:56.699Z,14.33
2019-05-16T16:57:27.084Z,14.27
2019-05-16T16:59:57.610Z,14.53
2019-05-16T17:02:27.995Z,15.87
2019-05-16T17:05:01.738Z,14.83
2019-05-16T17:07:30.265Z,14.70
2019-05-16T17:10:00.501Z,16.97
2019-05-16T17:12:30.748Z,17.00
2019-05-16T17:15:00.900Z,17.53
2019-05-16T17:17:31.073Z,17.93
2019-05-16T17:20:01.255Z,19.10
2019-05-16T17:22:37.273Z,18.40
2019-05-16T17:25:07.821Z,19.53
2019-05-16T17:27:38.390Z,19.00
2019-05-16T17:30:17.028Z,19.80
2019-05-16T17:32:47.628Z,19.23
2019-05-16T17:35:19.000Z,19.27
2019-05-16T17:37:49.462Z,19.80
2019-05-16T17:40:20.117Z,20.43
2019-05-16T17:42:50.510Z,19.70
2019-05-16T17:45:21.222Z,20.87
2019-05-16T17:47:51.686Z,20.73
2019-05-16T17:50:22.912Z,20.73
2019-05-16T17:52:53.135Z,22.10
2019-05-16T17:55:23.492Z,22.20
2019-05-16T17:57:53.834Z,21.60
2019-05-16T18:00:28.736Z,22.70
2019-05-16T18:02:57.018Z,24.00
2019-05-16T18:05:30.602Z,23.10
2019-05-16T18:08:01.199Z,23.63
2019-05-16T18:10:31.447Z,22.33
2019-05-16T18:13:01.719Z,23.30
2019-05-16T18:15:31.893Z,23.53
2019-05-16T18:18:02.113Z,31.23
2019-05-16T18:20:32.352Z,26.43
2019-05-16T18:23:02.555Z,24.43
2019-05-16T18:25:32.818Z,24.70
2019-05-16T18:28:04.043Z,24.53
2019-05-16T18:30:36.377Z,25.63
2019-05-16T18:33:07.285Z,25.07
2019-05-16T18:35:38.984Z,26.27
2019-05-16T18:38:09.246Z,25.53
2019-05-16T18:40:39.428Z,27.90
2019-05-16T18:43:09.775Z,27.67
2019-05-16T18:45:39.922Z,27.27
2019-05-16T18:48:10.171Z,27.23
2019-05-16T18:50:40.349Z,28.03
2019-05-16T18:53:10.614Z,29.30
2019-05-16T18:55:40.829Z,30.07
2019-05-16T18:58:10.911Z,29.57
2019-05-16T19:00:41.249Z,29.63
2019-05-16T19:03:11.529Z,31.30
2019-05-16T19:05:41.739Z,33.13
2019-05-16T19:08:11.895Z,34.60
2019-05-16T19:10:42.097Z,36.83
2019-05-16T19:13:12.542Z,36.33
2019-05-16T19:15:42.724Z,38.97
2019-05-16T19:18:12.991Z,41.90
2019-05-16T19:20:43.206Z,40.93
2019-05-16T19:23:13.385Z,40.67
2019-05-16T19:25:43.633Z,40.20
2019-05-16T19:28:13.843Z,44.73
2019-05-16T19:30:46.396Z,49.57
2019-05-16T19:33:17.489Z,49.67
2019-05-16T19:35:49.066Z,50.73
2019-05-16T19:38:20.520Z,47.60
2019-05-16T19:40:50.800Z,42.77
2019-05-16T19:43:21.039Z,42.83
2019-05-16T19:45:51.990Z,40.00
2019-05-16T19:48:22.354Z,43.20
2019-05-16T19:50:52.547Z,43.40
2019-05-16T19:53:22.754Z,41.60
2019-05-16T19:55:56.389Z,44.70
2019-05-16T19:58:26.644Z,42.30
2019-05-16T20:00:57.451Z,43.43
2019-05-16T20:03:27.804Z,43.23
2019-05-16T20:05:57.998Z,46.67
2019-05-16T20:08:28.310Z,47.50
2019-05-16T20:10:58.511Z,45.07
2019-05-16T20:13:28.660Z,42.57
2019-05-16T20:15:59.883Z,43.60
2019-05-16T20:18:30.479Z,44.37
2019-05-16T20:21:01.146Z,44.77
2019-05-16T20:23:31.435Z,46.93
2019-05-16T20:26:01.660Z,46.13
2019-05-16T20:28:31.946Z,43.93
2019-05-16T20:31:03.287Z,44.03
2019-05-16T20:33:33.534Z,42.67
2019-05-16T20:36:06.299Z,45.77
2019-05-16T20:38:37.207Z,47.87
2019-05-16T20:41:07.976Z,46.30
2019-05-16T20:43:38.250Z,46.57
2019-05-16T20:46:08.526Z,47.60
2019-05-16T20:48:38.738Z,47.23
2019-05-16T20:51:08.870Z,46.17
2019-05-16T20:53:39.085Z,45.47
2019-05-16T20:56:09.415Z,45.77
2019-05-16T20:58:40.726Z,44.13
2019-05-16T21:01:10.978Z,41.17
2019-05-16T21:03:41.094Z,41.57
2019-05-16T21:06:11.306Z,42.50
2019-05-16T21:08:41.574Z,44.50
2019-05-16T21:11:11.789Z,44.27
2019-05-16T21:13:42.134Z,40.50
2019-05-16T21:16:12.510Z,43.70
2019-05-16T21:18:42.821Z,47.13
2019-05-16T21:21:12.982Z,47.13
2019-05-16T21:23:43.158Z,46.07
2019-05-16T21:26:13.293Z,46.10
2019-05-16T21:28:43.591Z,48.23
2019-05-16T21:31:13.833Z,47.27
2019-05-16T21:33:44.145Z,48.77
2019-05-16T21:36:16.054Z,45.00
2019-05-16T21:38:46.901Z,44.87
2019-05-16T21:41:17.350Z,44.90
2019-05-16T21:43:47.527Z,46.47
2019-05-16T21:46:20.130Z,43.10
2019-05-16T21:48:49.543Z,41.03
2019-05-16T21:51:19.880Z,42.13
2019-05-16T21:53:50.134Z,43.07
2019-05-16T21:56:20.470Z,42.73
2019-05-16T21:58:50.642Z,38.63
2019-05-16T22:01:22.985Z,39.90
2019-05-16T22:03:53.276Z,38.53
2019-05-16T22:06:23.599Z,42.90
2019-05-16T22:08:54.009Z,42.70
2019-05-16T22:11:26.292Z,44.40
2019-05-16T22:13:57.611Z,44.77
2019-05-16T22:16:27.978Z,45.83
2019-05-16T22:18:59.355Z,47.70
2019-05-16T22:21:29.601Z,46.33
2019-05-16T22:23:59.909Z,39.37
2019-05-16T22:26:30.206Z,35.27
2019-05-16T22:29:00.359Z,39.27
2019-05-16T22:31:30.666Z,36.43
2019-05-16T22:34:01.089Z,32.70
2019-05-16T22:36:31.409Z,33.63
2019-05-16T22:39:01.610Z,28.90
2019-05-16T22:41:33.371Z,30.83
2019-05-16T22:44:03.457Z,28.30
2019-05-16T22:46:33.695Z,29.90
2019-05-16T22:49:03.931Z,29.40
2019-05-16T22:51:36.506Z,28.40
2019-05-16T22:54:07.676Z,29.30
2019-05-16T22:56:38.289Z,30.10
2019-05-16T22:59:08.481Z,28.03
2019-05-16T23:01:38.794Z,26.63
2019-05-16T23:04:09.083Z,25.50
2019-05-16T23:06:39.314Z,26.93
2019-05-16T23:09:09.490Z,29.57
2019-05-16T23:11:39.719Z,32.30
2019-05-16T23:14:09.885Z,32.43
2019-05-16T23:16:40.066Z,33.23
2019-05-16T23:19:10.243Z,35.63
2019-05-16T23:21:40.444Z,32.93
2019-05-16T23:24:10.682Z,27.60
2019-05-16T23:26:41.006Z,27.87
2019-05-16T23:29:11.190Z,27.57
2019-05-16T23:31:41.370Z,26.23
2019-05-16T23:34:11.551Z,26.70
2019-05-16T23:36:41.715Z,25.87
2019-05-16T23:39:11.878Z,24.67
2019-05-16T23:41:42.120Z,24.50
2019-05-16T23:44:12.379Z,25.27
2019-05-16T23:46:42.580Z,26.47
2019-05-16T23:49:12.867Z,26.53
2019-05-16T23:51:43.056Z,29.80
2019-05-16T23:54:13.221Z,32.43
2019-05-16T23:56:43.418Z,32.83
2019-05-16T23:59:13.682Z,32.73
